createdAt,value
2022-11-24T00:02:09.397Z,95.00
2022-11-24T00:04:39.149Z,102.22
2022-11-24T00:07:08.633Z,98.22
2022-11-24T00:09:38.176Z,96.60
2022-11-24T00:12:07.679Z,98.30
2022-11-24T00:14:37.224Z,97.88
2022-11-24T00:17:06.633Z,99.22
2022-11-24T00:19:36.200Z,101.25
2022-11-24T00:22:05.547Z,98.70
2022-11-24T00:24:35.569Z,94.00
2022-11-24T00:27:05.391Z,97.15
2022-11-24T00:29:34.879Z,101.70
2022-11-24T00:32:07.226Z,100.43
2022-11-24T00:34:36.730Z,98.68
2022-11-24T00:37:06.275Z,105.30
2022-11-24T00:39:35.619Z,101.55
2022-11-24T00:42:05.173Z,106.45
2022-11-24T00:44:34.852Z,106.03
2022-11-24T00:47:05.146Z,104.47
2022-11-24T00:49:34.684Z,106.75
2022-11-24T00:52:04.178Z,113.07
2022-11-24T00:54:34.566Z,108.45
2022-11-24T00:57:04.415Z,105.38
2022-11-24T00:59:33.769Z,107.50
2022-11-24T01:02:04.795Z,109.53
2022-11-24T01:04:36.512Z,107.72
2022-11-24T01:07:08.325Z,106.70
2022-11-24T01:09:39.476Z,110.82
2022-11-24T01:12:10.314Z,99.30
2022-11-24T01:14:41.436Z,103.35
2022-11-24T01:17:11.663Z,103.63
2022-11-24T01:19:42.521Z,103.55
2022-11-24T01:22:14.713Z,107.95
2022-11-24T01:24:45.550Z,102.43
2022-11-24T01:27:15.969Z,105.53
2022-11-24T01:29:46.925Z,103.57
2022-11-24T01:32:17.640Z,102.03
2022-11-24T01:34:48.314Z,103.28
2022-11-24T01:37:19.657Z,113.43
2022-11-24T01:39:50.527Z,113.90
2022-11-24T01:42:21.551Z,113.05
2022-11-24T01:45:30.427Z,108.70
2022-11-24T01:48:03.286Z,105.57
2022-11-24T01:50:36.405Z,126.05
2022-11-24T01:53:07.581Z,166.35
2022-11-24T01:55:41.267Z,167.63
2022-11-24T01:58:17.661Z,176.77
2022-11-24T02:00:48.793Z,246.63
2022-11-24T02:03:24.082Z,240.88
2022-11-24T02:06:03.354Z,235.88
2022-11-24T02:08:43.536Z,171.18
2022-11-24T02:11:14.282Z,146.07
2022-11-24T02:13:46.002Z,157.18
2022-11-24T02:16:16.525Z,143.07
2022-11-24T02:18:47.045Z,128.30
2022-11-24T02:21:18.655Z,127.10
2022-11-24T02:24:07.092Z,130.52
2022-11-24T02:26:50.830Z,128.63
2022-11-24T02:29:22.279Z,135.48
2022-11-24T02:32:00.842Z,146.88
2022-11-24T02:34:31.487Z,190.43
2022-11-24T02:37:02.127Z,198.32
2022-11-24T02:39:32.592Z,144.23
2022-11-24T02:42:08.349Z,129.90
2022-11-24T02:44:45.608Z,138.15
2022-11-24T02:47:16.289Z,128.18
2022-11-24T02:49:46.447Z,155.02
2022-11-24T02:52:17.648Z,154.27
2022-11-24T02:54:47.808Z,151.60
2022-11-24T02:57:18.541Z,144.40
2022-11-24T02:59:48.994Z,148.40
2022-11-24T03:02:19.416Z,148.43
2022-11-24T03:04:50.137Z,145.27
2022-11-24T03:07:20.473Z,144.55
2022-11-24T03:09:51.100Z,169.35
2022-11-24T03:12:22.135Z,167.23
2022-11-24T03:14:53.101Z,172.18
2022-11-24T03:17:23.426Z,181.43
2022-11-24T03:19:53.640Z,178.77
2022-11-24T03:22:23.938Z,181.00
2022-11-24T03:24:55.097Z,179.02
2022-11-24T03:27:25.608Z,172.50
2022-11-24T03:29:56.115Z,176.07
2022-11-24T03:32:26.873Z,173.80
2022-11-24T03:34:57.828Z,171.15
2022-11-24T03:37:28.273Z,135.20
2022-11-24T03:39:58.620Z,126.30
2022-11-24T03:42:28.698Z,122.57
2022-11-24T03:45:04.265Z,121.20
2022-11-24T03:47:46.502Z,128.00
2022-11-24T03:50:16.191Z,132.55
2022-11-24T03:52:45.506Z,138.45
2022-11-24T03:55:15.046Z,129.80
2022-11-24T03:57:44.707Z,119.13
2022-11-24T04:00:14.573Z,105.05
2022-11-24T04:02:44.340Z,97.13
2022-11-24T04:05:13.937Z,93.00
2022-11-24T04:07:43.761Z,98.22
2022-11-24T04:10:13.543Z,97.60
2022-11-24T04:12:45.967Z,103.38
2022-11-24T04:15:20.738Z,104.47
2022-11-24T04:17:51.624Z,102.90
2022-11-24T04:20:21.598Z,92.00
2022-11-24T04:22:53.248Z,89.70
2022-11-24T04:25:22.779Z,90.97
2022-11-24T04:27:54.349Z,86.90
2022-11-24T04:30:27.361Z,86.13
2022-11-24T04:32:58.136Z,78.97
2022-11-24T04:35:27.648Z,65.65
2022-11-24T04:37:57.080Z,70.78
2022-11-24T04:40:26.789Z,58.13
2022-11-24T04:42:57.287Z,61.33
2022-11-24T04:45:26.951Z,60.90
2022-11-24T04:47:56.454Z,71.22
2022-11-24T04:50:26.134Z,61.70
2022-11-24T04:52:55.485Z,54.17
2022-11-24T04:55:25.068Z,43.83
2022-11-24T04:57:54.418Z,41.55
2022-11-24T05:00:24.096Z,42.13
2022-11-24T05:02:53.868Z,50.58
2022-11-24T05:05:24.427Z,50.28
2022-11-24T05:07:54.279Z,50.33
2022-11-24T05:10:38.760Z,55.05
2022-11-24T05:13:17.245Z,52.67
2022-11-24T05:15:46.915Z,56.00
2022-11-24T05:18:17.870Z,56.88
2022-11-24T05:20:47.374Z,60.28
2022-11-24T05:23:18.231Z,58.35
2022-11-24T05:25:48.111Z,53.05
2022-11-24T05:28:18.747Z,56.90
2022-11-24T05:30:48.254Z,52.35
2022-11-24T05:33:24.154Z,50.30
2022-11-24T05:35:54.069Z,47.35
2022-11-24T05:38:24.790Z,46.80
2022-11-24T05:40:54.521Z,48.50
2022-11-24T05:43:23.964Z,47.47
2022-11-24T05:45:53.284Z,48.78
2022-11-24T05:48:23.051Z,49.63
2022-11-24T05:50:59.719Z,52.20
2022-11-24T05:53:29.710Z,53.38
2022-11-24T05:56:01.168Z,51.53
2022-11-24T05:58:30.799Z,48.95
2022-11-24T06:01:02.531Z,49.35
2022-11-24T06:03:32.543Z,46.92
2022-11-24T06:06:02.543Z,45.60
2022-11-24T06:08:32.855Z,47.58
2022-11-24T06:11:23.700Z,43.78
2022-11-24T06:13:53.299Z,39.70
2022-11-24T06:16:23.465Z,40.50
2022-11-24T06:18:53.983Z,44.15
2022-11-24T06:21:23.843Z,43.03
2022-11-24T06:23:53.352Z,41.55
2022-11-24T06:26:23.024Z,40.88
2022-11-24T06:28:52.521Z,37.25
2022-11-24T06:31:22.890Z,33.88
2022-11-24T06:33:52.728Z,37.38
2022-11-24T06:36:23.536Z,37.90
2022-11-24T06:38:53.461Z,42.17
2022-11-24T06:41:24.080Z,33.78
2022-11-24T06:43:53.762Z,37.78
2022-11-24T06:46:23.713Z,36.10
2022-11-24T06:48:54.316Z,39.70
2022-11-24T06:51:24.180Z,34.05
2022-11-24T06:53:53.940Z,37.45
2022-11-24T06:56:24.252Z,42.97
2022-11-24T06:58:55.573Z,41.20
2022-11-24T07:01:27.961Z,33.58
2022-11-24T07:03:59.510Z,31.40
2022-11-24T07:06:29.530Z,33.22
2022-11-24T07:08:59.044Z,30.10
2022-11-24T07:11:28.813Z,31.88
2022-11-24T07:14:00.461Z,33.45
2022-11-24T07:16:30.897Z,32.05
2022-11-24T07:19:01.617Z,37.00
2022-11-24T07:21:32.109Z,38.45
2022-11-24T07:24:01.676Z,39.00
2022-11-24T07:26:31.029Z,42.85
2022-11-24T07:29:00.665Z,42.08
2022-11-24T07:31:30.096Z,44.60
2022-11-24T07:34:01.844Z,43.97
2022-11-24T07:36:31.557Z,40.37
2022-11-24T07:39:01.440Z,36.90
2022-11-24T07:41:31.245Z,42.00
2022-11-24T07:44:00.955Z,35.90
2022-11-24T07:46:30.597Z,34.97
2022-11-24T07:49:00.384Z,36.42
2022-11-24T07:51:29.958Z,31.95
2022-11-24T07:54:03.801Z,30.45
2022-11-24T07:56:33.686Z,34.78
2022-11-24T07:59:03.984Z,32.80
2022-11-24T08:01:37.268Z,31.58
2022-11-24T08:04:09.627Z,30.52
2022-11-24T08:06:43.295Z,26.42
2022-11-24T08:09:16.681Z,26.48
2022-11-24T08:11:46.601Z,28.30
2022-11-24T08:14:16.178Z,29.20
2022-11-24T08:16:46.020Z,31.40
2022-11-24T08:19:15.733Z,32.55
2022-11-24T08:21:45.380Z,29.83
2022-11-24T08:24:16.654Z,35.38
2022-11-24T08:26:46.544Z,30.80
2022-11-24T08:29:16.151Z,35.78
2022-11-24T08:31:45.972Z,44.92
2022-11-24T08:34:15.728Z,43.15
2022-11-24T08:36:45.260Z,52.42
2022-11-24T08:39:15.012Z,48.97
2022-11-24T08:41:44.697Z,51.70
2022-11-24T08:44:17.235Z,53.92
2022-11-24T08:46:47.675Z,53.25
2022-11-24T08:49:19.996Z,49.85
2022-11-24T08:51:51.417Z,39.42
2022-11-24T08:54:22.595Z,31.92
2022-11-24T08:56:52.425Z,33.13
2022-11-24T08:59:21.844Z,24.70
2022-11-24T09:01:51.506Z,23.35
2022-11-24T09:04:21.209Z,27.10
2022-11-24T09:06:51.255Z,21.38
2022-11-24T09:09:21.165Z,20.10
2022-11-24T09:11:50.973Z,23.58
2022-11-24T09:14:20.381Z,16.42
2022-11-24T09:16:50.230Z,18.48
2022-11-24T09:19:19.852Z,16.35
2022-11-24T09:21:50.014Z,17.15
2022-11-24T09:24:19.742Z,17.55
2022-11-24T09:26:49.359Z,17.30
2022-11-24T09:30:13.832Z,16.48
2022-11-24T09:33:01.575Z,21.03
2022-11-24T09:35:31.175Z,18.48
2022-11-24T09:38:00.028Z,18.42
2022-11-24T09:40:29.088Z,16.35
2022-11-24T09:43:08.989Z,14.75
2022-11-24T09:46:04.944Z,12.68
2022-11-24T09:48:45.549Z,16.15
2022-11-24T09:51:17.018Z,13.85
2022-11-24T09:53:55.366Z,21.38
2022-11-24T09:56:30.969Z,18.27
2022-11-24T09:59:25.830Z,16.55
2022-11-24T10:01:56.811Z,19.52
2022-11-24T10:04:35.580Z,23.65
2022-11-24T10:07:39.020Z,17.00
2022-11-24T10:10:25.102Z,13.30
2022-11-24T10:13:21.799Z,14.48
2022-11-24T10:16:16.189Z,14.45
2022-11-24T10:18:45.687Z,15.18
2022-11-24T10:21:37.914Z,13.88
2022-11-24T10:24:29.131Z,12.02
2022-11-24T10:27:16.747Z,11.73
2022-11-24T10:29:50.494Z,12.90
2022-11-24T10:32:32.800Z,12.70
2022-11-24T10:35:16.136Z,16.42
2022-11-24T10:37:51.704Z,17.95
2022-11-24T10:43:24.345Z,15.93
2022-11-24T10:45:53.478Z,14.63
2022-11-24T10:48:27.773Z,17.60
2022-11-24T10:51:17.091Z,16.65
2022-11-24T10:53:47.571Z,15.18
2022-11-24T10:56:16.674Z,13.40
2022-11-24T10:58:45.902Z,14.25
2022-11-24T11:01:15.084Z,13.07
2022-11-24T11:03:51.344Z,12.60
2022-11-24T11:06:25.981Z,13.27
2022-11-24T11:09:10.330Z,14.50
2022-11-24T11:11:41.676Z,12.43
2022-11-24T11:14:16.936Z,12.32
2022-11-24T11:16:58.841Z,15.73
2022-11-24T11:19:49.809Z,13.40
2022-11-24T11:22:32.727Z,12.43
2022-11-24T11:25:21.418Z,14.10
2022-11-24T11:27:51.201Z,13.98
2022-11-24T11:36:17.259Z,14.70
2022-11-24T11:38:48.498Z,14.18
2022-11-24T11:41:38.089Z,16.02
2022-11-24T11:44:27.800Z,15.63
2022-11-24T11:47:00.821Z,13.98
2022-11-24T11:49:29.952Z,15.30
2022-11-24T11:52:30.331Z,17.35
2022-11-24T11:55:36.808Z,15.55
2022-11-24T11:58:44.537Z,15.13
2022-11-24T12:01:32.135Z,14.93
2022-11-24T12:04:49.594Z,16.98
2022-11-24T12:07:21.362Z,17.70
2022-11-24T12:10:17.990Z,15.05
2022-11-24T12:13:08.137Z,18.65
2022-11-24T12:15:56.519Z,17.67
2022-11-24T12:18:59.386Z,18.25
2022-11-24T12:22:01.106Z,20.73
2022-11-24T12:24:46.673Z,22.75
2022-11-24T12:27:29.557Z,21.30
2022-11-24T12:32:52.704Z,21.27
2022-11-24T12:35:31.397Z,20.48
2022-11-24T12:38:15.832Z,20.20
2022-11-24T12:44:52.196Z,21.48
2022-11-24T12:47:32.720Z,19.52
2022-11-24T12:50:19.321Z,21.25
2022-11-24T12:53:12.991Z,18.92
2022-11-24T12:55:43.655Z,21.05
2022-11-24T12:58:27.641Z,19.90
2022-11-24T13:01:16.905Z,21.58
2022-11-24T13:04:04.855Z,24.40
2022-11-24T13:06:51.474Z,23.65
2022-11-24T13:09:21.528Z,24.35
2022-11-24T13:12:14.705Z,24.13
2022-11-24T13:14:47.822Z,25.05
2022-11-24T13:17:47.558Z,24.88
2022-11-24T13:20:22.331Z,27.45
2022-11-24T13:23:00.319Z,29.85
2022-11-24T13:25:37.985Z,29.35
2022-11-24T13:28:07.767Z,30.25
2022-11-24T13:30:37.390Z,28.48
2022-11-24T13:33:16.429Z,27.83
2022-11-24T13:36:05.240Z,29.10
2022-11-24T13:38:54.555Z,28.90
2022-11-24T13:41:38.340Z,30.08
2022-11-24T13:44:16.770Z,30.08
2022-11-24T13:47:23.911Z,29.70
2022-11-24T13:49:53.059Z,30.38
2022-11-24T13:52:43.314Z,29.55
2022-11-24T13:55:16.546Z,29.58
2022-11-24T13:58:01.413Z,32.42
2022-11-24T14:00:36.862Z,31.02
2022-11-24T14:03:29.384Z,30.40
2022-11-24T14:06:00.187Z,33.17
2022-11-24T14:08:34.692Z,34.47
2022-11-24T14:11:05.008Z,33.85
2022-11-24T14:13:35.077Z,30.88
2022-11-24T14:16:22.232Z,34.20
2022-11-24T14:18:53.442Z,35.03
2022-11-24T14:21:54.858Z,34.13
2022-11-24T14:24:39.790Z,35.22
2022-11-24T14:27:19.182Z,39.03
2022-11-24T14:30:00.483Z,36.88
2022-11-24T14:32:30.998Z,44.00
2022-11-24T14:35:00.862Z,46.03
2022-11-24T14:37:30.118Z,50.00
2022-11-24T14:39:59.196Z,52.15
2022-11-24T14:42:29.315Z,50.28
2022-11-24T14:45:05.552Z,54.70
2022-11-24T14:47:46.927Z,53.67
2022-11-24T14:50:20.358Z,63.08
2022-11-24T14:52:58.061Z,59.13
2022-11-24T14:55:32.768Z,61.78
2022-11-24T14:58:03.578Z,58.58
2022-11-24T15:00:34.490Z,61.00
2022-11-24T15:03:03.715Z,68.80
2022-11-24T15:06:00.468Z,68.13
2022-11-24T15:08:38.698Z,70.35
2022-11-24T15:11:09.030Z,68.45
2022-11-24T15:13:41.791Z,69.15
2022-11-24T15:16:19.212Z,72.30
2022-11-24T15:18:50.635Z,69.65
2022-11-24T15:21:35.740Z,67.20
2022-11-24T15:24:18.141Z,66.50
2022-11-24T15:26:48.089Z,74.38
2022-11-24T15:29:17.322Z,67.13
2022-11-24T15:31:51.005Z,66.60
2022-11-24T15:34:21.682Z,70.80
2022-11-24T15:36:50.953Z,69.40
2022-11-24T15:39:20.027Z,72.55
2022-11-24T15:41:49.091Z,71.28
2022-11-24T15:44:18.204Z,73.28
2022-11-24T15:46:47.791Z,70.70
2022-11-24T15:49:16.869Z,74.30
2022-11-24T15:51:48.022Z,75.05
2022-11-24T15:54:20.270Z,74.97
2022-11-24T15:56:49.595Z,75.13
2022-11-24T15:59:20.797Z,73.43
2022-11-24T16:01:51.728Z,73.22
2022-11-24T16:04:20.802Z,74.80
2022-11-24T16:06:51.273Z,75.32
2022-11-24T16:09:22.320Z,75.65
2022-11-24T16:11:51.509Z,90.20
2022-11-24T16:14:21.018Z,100.85
2022-11-24T16:16:50.244Z,101.93
2022-11-24T16:19:19.494Z,86.90
2022-11-24T16:21:52.297Z,92.20
2022-11-24T16:24:21.621Z,91.72
2022-11-24T16:26:53.084Z,87.75
2022-11-24T16:29:24.928Z,85.03
2022-11-24T16:31:57.521Z,82.63
2022-11-24T16:34:33.463Z,84.35
2022-11-24T16:37:02.706Z,81.55
2022-11-24T16:39:32.042Z,84.00
2022-11-24T16:42:02.838Z,82.55
2022-11-24T16:44:32.391Z,85.68
2022-11-24T16:47:03.355Z,78.25
2022-11-24T16:49:33.935Z,80.20
2022-11-24T16:52:03.379Z,82.43
2022-11-24T16:54:33.105Z,80.05
2022-11-24T16:57:02.690Z,86.60
2022-11-24T16:59:32.297Z,83.25
2022-11-24T17:02:01.652Z,84.47
2022-11-24T17:04:30.686Z,95.22
2022-11-24T17:06:59.837Z,95.13
2022-11-24T17:09:28.747Z,97.60
2022-11-24T17:11:57.890Z,100.45
2022-11-24T17:14:26.928Z,107.50
2022-11-24T17:16:57.082Z,106.05
2022-11-24T17:19:26.929Z,99.75
2022-11-24T17:21:55.977Z,96.05
2022-11-24T17:24:25.493Z,97.60
2022-11-24T17:26:55.895Z,90.00
2022-11-24T17:29:25.767Z,96.80
2022-11-24T17:31:54.749Z,106.00
2022-11-24T17:34:25.256Z,90.65
2022-11-24T17:36:55.383Z,80.78
2022-11-24T17:39:28.812Z,83.95
2022-11-24T17:41:58.712Z,80.57
2022-11-24T17:44:33.620Z,80.78
2022-11-24T17:47:08.003Z,77.45
2022-11-24T17:49:37.789Z,75.40
2022-11-24T17:52:08.344Z,80.35
2022-11-24T17:54:46.442Z,78.32
2022-11-24T17:57:18.862Z,81.35
2022-11-24T17:59:48.050Z,77.93
2022-11-24T18:02:17.333Z,75.15
2022-11-24T18:04:46.633Z,71.38
2022-11-24T18:07:15.597Z,72.38
2022-11-24T18:09:45.385Z,72.65
2022-11-24T18:12:14.775Z,72.82
2022-11-24T18:14:43.883Z,68.93
2022-11-24T18:17:13.300Z,68.78
2022-11-24T18:19:42.194Z,69.05
2022-11-24T18:22:11.343Z,68.72
2022-11-24T18:24:40.606Z,71.45
2022-11-24T18:27:10.077Z,68.93
2022-11-24T18:29:39.139Z,68.25
2022-11-24T18:32:08.242Z,71.05
2022-11-24T18:34:38.386Z,71.00
2022-11-24T18:37:08.970Z,64.13
2022-11-24T18:39:38.182Z,65.05
2022-11-24T18:42:07.190Z,65.90
2022-11-24T18:44:38.120Z,70.25
2022-11-24T18:47:07.515Z,67.35
2022-11-24T18:49:36.656Z,66.53
2022-11-24T18:52:05.971Z,63.17
2022-11-24T18:54:35.310Z,57.78
2022-11-24T18:57:04.853Z,59.38
2022-11-24T18:59:34.250Z,61.42
2022-11-24T19:02:03.206Z,61.17
2022-11-24T19:04:33.333Z,58.67
2022-11-24T19:07:03.672Z,59.88
2022-11-24T19:09:33.377Z,58.38
2022-11-24T19:12:10.554Z,57.95
2022-11-24T19:14:40.761Z,54.85
2022-11-24T19:17:10.996Z,53.25
2022-11-24T19:19:40.718Z,54.00
2022-11-24T19:22:11.761Z,56.67
2022-11-24T19:24:43.664Z,56.10
2022-11-24T19:27:16.501Z,55.80
2022-11-24T19:29:47.670Z,59.45
2022-11-24T19:32:18.150Z,61.10
2022-11-24T19:34:51.790Z,57.05
2022-11-24T19:37:24.436Z,60.80
2022-11-24T19:39:55.175Z,57.30
2022-11-24T19:42:24.708Z,58.17
2022-11-24T19:44:56.669Z,53.58
2022-11-24T19:47:30.436Z,54.92
2022-11-24T19:50:10.767Z,56.80
2022-11-24T19:52:39.903Z,56.00
2022-11-24T19:55:09.431Z,55.47
2022-11-24T19:57:38.437Z,59.17
2022-11-24T20:00:08.621Z,58.70
2022-11-24T20:02:37.928Z,61.58
2022-11-24T20:05:08.082Z,57.03
2022-11-24T20:07:45.221Z,60.15
2022-11-24T20:10:16.328Z,65.20
2022-11-24T20:12:49.457Z,62.05
2022-11-24T20:15:20.303Z,64.20
2022-11-24T20:17:49.503Z,62.55
2022-11-24T20:20:21.302Z,60.88
2022-11-24T20:22:52.183Z,62.50
2022-11-24T20:25:21.644Z,62.38
2022-11-24T20:27:55.447Z,60.53
2022-11-24T20:30:27.927Z,65.40
2022-11-24T20:32:59.854Z,62.15
2022-11-24T20:35:30.630Z,63.40
2022-11-24T20:38:02.089Z,63.35
2022-11-24T20:40:33.900Z,64.93
2022-11-24T20:43:03.517Z,65.70
2022-11-24T20:45:32.523Z,67.18
2022-11-24T20:48:04.301Z,66.00
2022-11-24T20:50:34.535Z,65.47
2022-11-24T20:53:03.803Z,64.97
2022-11-24T20:55:36.261Z,65.88
2022-11-24T20:58:24.611Z,63.08
2022-11-24T21:00:54.226Z,62.38
2022-11-24T21:03:23.492Z,63.97
2022-11-24T21:05:56.804Z,65.35
2022-11-24T21:08:26.007Z,66.32
2022-11-24T21:10:59.370Z,68.55
2022-11-24T21:13:29.818Z,66.97
2022-11-24T21:15:59.022Z,65.78
2022-11-24T21:18:28.287Z,65.30
2022-11-24T21:21:00.782Z,67.28
2022-11-24T21:23:30.158Z,68.20
2022-11-24T21:26:10.314Z,65.82
2022-11-24T21:28:45.197Z,67.55
2022-11-24T21:31:16.791Z,73.38
2022-11-24T21:33:53.384Z,67.15
2022-11-24T21:36:25.566Z,69.72
2022-11-24T21:38:56.993Z,71.88
2022-11-24T21:41:28.632Z,69.22
2022-11-24T21:43:57.975Z,72.50
2022-11-24T21:46:27.118Z,70.05
2022-11-24T21:48:56.230Z,70.03
2022-11-24T21:51:25.611Z,70.43
2022-11-24T21:53:55.258Z,71.70
2022-11-24T21:56:25.459Z,71.80
2022-11-24T21:58:56.967Z,67.78
2022-11-24T22:01:29.206Z,71.70
2022-11-24T22:03:58.376Z,69.20
2022-11-24T22:06:27.498Z,67.07
2022-11-24T22:08:56.788Z,68.65
2022-11-24T22:11:27.239Z,67.35
2022-11-24T22:13:56.301Z,71.53
2022-11-24T22:16:26.852Z,73.00
2022-11-24T22:18:56.096Z,70.40
2022-11-24T22:21:31.589Z,76.15
2022-11-24T22:24:04.095Z,71.78
2022-11-24T22:29:02.202Z,70.55
2022-11-24T22:31:33.868Z,76.20
2022-11-24T22:34:02.988Z,74.70
2022-11-24T22:36:32.438Z,76.38
2022-11-24T22:39:04.278Z,74.20
2022-11-24T22:41:36.239Z,74.28
2022-11-24T22:44:06.245Z,72.65
2022-11-24T22:46:35.284Z,76.82
2022-11-24T22:49:04.530Z,75.00
2022-11-24T22:51:36.014Z,72.07
2022-11-24T22:54:06.979Z,76.13
2022-11-24T22:56:36.159Z,77.40
2022-11-24T22:59:05.587Z,73.32
2022-11-24T23:01:35.403Z,74.68
2022-11-24T23:04:04.875Z,78.25
2022-11-24T23:06:35.029Z,78.35
2022-11-24T23:09:06.255Z,79.07
2022-11-24T23:11:41.383Z,81.35
2022-11-24T23:14:19.187Z,79.25
2022-11-24T23:16:48.549Z,80.10
2022-11-24T23:19:17.791Z,86.63
2022-11-24T23:21:46.854Z,84.72
2022-11-24T23:24:15.855Z,92.25
2022-11-24T23:26:45.083Z,110.20
2022-11-24T23:29:14.402Z,135.90
2022-11-24T23:31:43.683Z,123.82
2022-11-24T23:34:12.855Z,134.48
2022-11-24T23:36:42.621Z,150.70
2022-11-24T23:39:15.379Z,155.13
2022-11-24T23:41:44.519Z,165.63
2022-11-24T23:44:13.564Z,170.73
2022-11-24T23:46:42.622Z,177.77
2022-11-24T23:49:12.071Z,180.98
2022-11-24T23:51:43.110Z,183.43
2022-11-24T23:54:12.571Z,174.52
2022-11-24T23:56:41.684Z,176.18
2022-11-24T23:59:13.036Z,164.13
